Time;durP1;ratioP1;P1;durP2;ratioP2;P2;SDS_P1;SDS_P2;PMS_P1;PMS_P2;Temp;Humidity;BMP_temperature;BMP_pressure;BME280_temperature;BME280_humidity;BME280_pressure;Samples;Min_cycle;Max_cycle;Signal;HPM_P1;HPM_P2
2021/09/11 00:01:14;;;;;;;;;;;;;;;22.02;68.20;101147.13;5035929;28;1049;-62
2021/09/11 00:03:39;;;;;;;;;;;;;;;21.96;68.06;101141.47;5035672;28;1139;-62
2021/09/11 00:06:05;;;;;;;;;;;;;;;21.94;67.41;101138.09;5035690;28;845;-62
2021/09/11 00:08:30;;;;;;;;;;;;;;;21.93;67.40;101139.09;5047888;28;1974;-63
2021/09/11 00:10:55;;;;;;;;;;;;;;;21.97;67.09;101135.03;5055211;28;886;-63
2021/09/11 00:13:20;;;;;;;;;;;;;;;21.97;67.03;101129.63;5053603;28;835;-63
2021/09/11 00:15:45;;;;;;;;;;;;;;;21.92;67.30;101129.25;5054614;28;1894;-63
2021/09/11 00:18:10;;;;;;;;;;;;;;;21.90;67.59;101128.56;5054604;28;834;-63
2021/09/11 00:20:35;;;;;;;;;;;;;;;21.87;67.47;101129.75;5054616;28;1002;-64
2021/09/11 00:23:00;;;;;;;;;;;;;;;21.88;67.66;101130.59;5054523;28;1588;-64
2021/09/11 00:25:25;;;;;;;;;;;;;;;21.89;67.27;101126.88;5054415;28;988;-62
2021/09/11 00:27:50;;;;;;;;;;;;;;;21.90;67.19;101123.13;5054644;28;1489;-63
2021/09/11 00:30:15;;;;;;;;;;;;;;;21.87;67.71;101120.75;5054544;28;1005;-63
2021/09/11 00:32:43;;;;;;;;;;;;;;;21.89;67.82;101119.56;5054830;28;914;-62
2021/09/11 00:35:08;;;;;;;;;;;;;;;21.88;67.66;101128.72;5054551;28;1959;-63
2021/09/11 00:37:33;;;;;;;;;;;;;;;21.90;67.63;101125.84;5055217;28;1432;-63
2021/09/11 00:39:58;;;;;;;;;;;;;;;21.88;67.44;101125.16;5046700;28;1888;-61
2021/09/11 00:42:23;;;;;;;;;;;;;;;21.87;67.64;101123.47;5038014;28;2018;-61
2021/09/11 00:44:48;;;;;;;;;;;;;;;21.88;67.47;101117.03;5055120;28;922;-61
2021/09/11 00:47:13;;;;;;;;;;;;;;;21.88;67.77;101119.75;5055222;28;927;-61
2021/09/11 00:49:38;;;;;;;;;;;;;;;21.82;67.70;101122.13;5055028;28;917;-61
2021/09/11 00:52:03;;;;;;;;;;;;;;;21.82;67.70;101127.56;5055227;28;1044;-61
2021/09/11 00:54:29;;;;;;;;;;;;;;;21.77;67.02;101123.63;5055270;28;1898;-61
2021/09/11 00:56:55;;;;;;;;;;;;;;;21.76;67.54;101117.34;5054159;28;2155;-62
2021/09/11 00:59:20;;;;;;;;;;;;;;;21.70;66.77;101123.44;5054945;28;943;-62
2021/09/11 01:01:45;;;;;;;;;;;;;;;21.72;67.01;101125.97;5055294;28;949;-62
2021/09/11 01:04:11;;;;;;;;;;;;;;;21.71;67.27;101117.00;5054708;28;941;-62
2021/09/11 01:06:36;;;;;;;;;;;;;;;21.71;66.68;101129.69;5055202;28;927;-62
2021/09/11 01:09:01;;;;;;;;;;;;;;;21.64;66.78;101126.81;5054603;28;1034;-62
2021/09/11 01:11:26;;;;;;;;;;;;;;;21.66;66.97;101124.78;5055008;28;958;-62
2021/09/11 01:13:51;;;;;;;;;;;;;;;21.65;66.82;101123.09;5046344;28;1859;-61
2021/09/11 01:16:16;;;;;;;;;;;;;;;21.66;66.74;101127.50;5034778;28;1960;-62
2021/09/11 01:18:41;;;;;;;;;;;;;;;21.64;67.40;101126.81;5034949;28;1627;-62
2021/09/11 01:21:07;;;;;;;;;;;;;;;21.64;66.89;101126.81;5035048;28;1009;-62
2021/09/11 01:23:34;;;;;;;;;;;;;;;21.63;66.71;101122.41;5034708;28;886;-63
2021/09/11 01:25:59;;;;;;;;;;;;;;;21.62;66.67;101122.56;5035487;28;849;-63
2021/09/11 01:28:27;;;;;;;;;;;;;;;21.62;66.85;101126.13;5016765;28;1427;-62
2021/09/11 01:30:52;;;;;;;;;;;;;;;21.62;66.75;101123.41;5043417;28;2006;-62
2021/09/11 01:33:17;;;;;;;;;;;;;;;21.61;66.52;101124.44;5054713;28;835;-63
2021/09/11 01:35:42;;;;;;;;;;;;;;;21.63;67.24;101122.41;5054837;28;1905;-62
2021/09/11 01:38:07;;;;;;;;;;;;;;;21.60;66.75;101121.88;5054658;28;1470;-64
2021/09/11 01:40:32;;;;;;;;;;;;;;;21.58;66.15;101127.47;5054408;28;997;-63
2021/09/11 01:42:57;;;;;;;;;;;;;;;21.59;66.40;101131.88;5054588;28;1165;-61
2021/09/11 01:45:22;;;;;;;;;;;;;;;21.53;66.29;101127.09;5054452;28;840;-62
2021/09/11 01:47:48;;;;;;;;;;;;;;;21.53;66.65;101110.81;5054241;28;1947;-61
2021/09/11 01:50:13;;;;;;;;;;;;;;;21.55;66.79;101129.66;5036099;28;2520;-61
2021/09/11 01:52:38;;;;;;;;;;;;;;;21.50;66.86;101121.19;5054477;28;985;-61
2021/09/11 01:55:07;;;;;;;;;;;;;;;21.45;66.43;101116.25;5058134;28;1890;-62
2021/09/11 01:57:32;;;;;;;;;;;;;;;21.48;66.20;101118.63;5058425;28;859;-62
2021/09/11 01:59:57;;;;;;;;;;;;;;;21.47;65.98;101122.34;5058172;28;1017;-61
2021/09/11 02:02:22;;;;;;;;;;;;;;;21.44;65.82;101118.09;5057693;28;1883;-62
2021/09/11 02:04:47;;;;;;;;;;;;;;;21.28;66.43;101119.88;5057962;28;887;-62
2021/09/11 02:07:12;;;;;;;;;;;;;;;21.39;66.94;101115.00;5058525;28;1057;-62
2021/09/11 02:09:37;;;;;;;;;;;;;;;21.37;66.35;101125.16;5058256;28;1673;-62
2021/09/11 02:12:02;;;;;;;;;;;;;;;21.43;66.20;101120.97;5058014;28;855;-62
2021/09/11 02:14:27;;;;;;;;;;;;;;;21.43;66.48;101120.97;5057872;28;1893;-62
2021/09/11 02:16:53;;;;;;;;;;;;;;;21.34;66.38;101128.19;5058265;28;990;-63
2021/09/11 02:19:18;;;;;;;;;;;;;;;21.33;66.11;101128.38;5052821;28;1942;-63
2021/09/11 02:21:43;;;;;;;;;;;;;;;21.36;66.37;101133.47;5037828;28;880;-63
2021/09/11 02:24:08;;;;;;;;;;;;;;;21.26;66.03;101128.19;5037591;28;1022;-62
2021/09/11 02:26:33;;;;;;;;;;;;;;;21.25;66.17;101122.91;5038050;28;934;-62
2021/09/11 02:28:58;;;;;;;;;;;;;;;21.15;66.31;101128.41;5037990;28;1586;-61
2021/09/11 02:31:23;;;;;;;;;;;;;;;21.11;66.21;101130.63;5037409;28;799;-62
2021/09/11 02:33:48;;;;;;;;;;;;;;;21.16;66.36;101127.41;5037688;28;852;-61
2021/09/11 02:36:13;;;;;;;;;;;;;;;21.22;65.95;101126.81;5041630;28;1922;-61
2021/09/11 02:38:39;;;;;;;;;;;;;;;21.21;66.45;101122.38;5057710;28;937;-62
2021/09/11 02:41:04;;;;;;;;;;;;;;;21.14;66.16;101126.72;5057558;28;913;-61
2021/09/11 02:43:30;;;;;;;;;;;;;;;21.15;66.61;101123.84;5057524;28;824;-62
2021/09/11 02:45:56;;;;;;;;;;;;;;;21.22;66.48;101128.66;5057358;28;1251;-61
2021/09/11 02:48:21;;;;;;;;;;;;;;;21.26;67.05;101125.47;5057075;28;916;-61
2021/09/11 02:50:46;;;;;;;;;;;;;;;21.24;66.66;101115.81;5057332;28;1625;-61
2021/09/11 02:53:11;;;;;;;;;;;;;;;21.24;66.21;101118.50;5056136;28;1966;-61
2021/09/11 02:55:36;;;;;;;;;;;;;;;21.27;66.20;101115.47;5056742;28;1889;-61
2021/09/11 02:58:01;;;;;;;;;;;;;;;21.23;66.75;101114.09;5038354;28;1903;-61
2021/09/11 03:00:26;;;;;;;;;;;;;;;21.24;66.78;101113.09;5036645;28;989;-62
2021/09/11 03:02:51;;;;;;;;;;;;;;;21.19;66.01;101112.69;5037148;28;1185;-61
2021/09/11 03:05:16;;;;;;;;;;;;;;;21.26;66.48;101113.78;5036140;28;855;-61
2021/09/11 03:07:41;;;;;;;;;;;;;;;21.24;66.18;101115.81;5036589;28;989;-61
2021/09/11 03:10:06;;;;;;;;;;;;;;;21.25;65.90;101115.63;5038419;28;1590;-61
2021/09/11 03:12:31;;;;;;;;;;;;;;;21.23;66.56;101111.38;5057126;28;890;-61
2021/09/11 03:14:56;;;;;;;;;;;;;;;21.23;66.73;101114.94;5056687;28;1959;-63
2021/09/11 03:17:21;;;;;;;;;;;;;;;21.19;66.70;101120.81;5057156;28;866;-63
2021/09/11 03:19:47;;;;;;;;;;;;;;;21.19;66.36;101115.38;5056857;28;1651;-63
2021/09/11 03:22:12;;;;;;;;;;;;;;;21.19;66.44;101120.81;5057092;28;938;-62
2021/09/11 03:24:37;;;;;;;;;;;;;;;21.19;67.25;101121.66;5056746;28;917;-63
2021/09/11 03:27:02;;;;;;;;;;;;;;;21.18;66.99;101121.81;5056438;28;1238;-63
2021/09/11 03:29:27;;;;;;;;;;;;;;;21.15;67.04;101118.41;5055924;28;2002;-62
2021/09/11 03:31:52;;;;;;;;;;;;;;;21.14;67.09;101118.56;5056594;28;846;-62
2021/09/11 03:34:17;;;;;;;;;;;;;;;21.14;67.10;101124.84;5056459;28;1034;-62
2021/09/11 03:36:42;;;;;;;;;;;;;;;21.14;67.37;101122.13;5056403;28;1967;-62
2021/09/11 03:39:07;;;;;;;;;;;;;;;21.10;67.17;101126.22;5056243;28;910;-63
2021/09/11 03:41:32;;;;;;;;;;;;;;;21.09;67.44;101124.50;5055812;28;974;-62
2021/09/11 03:43:57;;;;;;;;;;;;;;;21.11;67.26;101122.50;5042492;28;2181;-61
2021/09/11 03:46:22;;;;;;;;;;;;;;;21.09;67.64;101118.22;5035880;28;1701;-64
2021/09/11 03:48:47;;;;;;;;;;;;;;;21.07;67.67;101123.81;5036329;28;991;-64
2021/09/11 03:51:13;;;;;;;;;;;;;;;21.14;66.95;101115.88;5036356;28;874;-65
2021/09/11 03:53:38;;;;;;;;;;;;;;;21.07;67.04;101115.69;5036112;28;982;-65
2021/09/11 03:56:03;;;;;;;;;;;;;;;21.12;67.37;101113.34;5035880;28;1939;-66
2021/09/11 03:58:28;;;;;;;;;;;;;;;21.09;67.88;101118.22;5035933;28;1001;-65
2021/09/11 04:00:53;;;;;;;;;;;;;;;21.09;67.03;101123.66;5037111;28;2065;-63
2021/09/11 04:03:18;;;;;;;;;;;;;;;21.02;67.47;101128.00;5054207;28;1971;-65
2021/09/11 04:05:44;;;;;;;;;;;;;;;21.06;67.65;101126.69;5055276;28;1037;-65
2021/09/11 04:08:09;;;;;;;;;;;;;;;20.97;67.41;101127.63;5055397;28;1001;-64
2021/09/11 04:10:34;;;;;;;;;;;;;;;20.98;67.35;101132.88;5054611;28;1035;-64
2021/09/11 04:12:59;;;;;;;;;;;;;;;21.03;66.89;101135.97;5053888;28;1005;-64
2021/09/11 04:15:24;;;;;;;;;;;;;;;20.97;67.62;101125.78;5054115;28;1914;-64
2021/09/11 04:17:50;;;;;;;;;;;;;;;20.92;68.01;101127.28;5025052;28;2018;-64
2021/09/11 04:20:15;;;;;;;;;;;;;;;20.97;67.82;101130.34;5035615;28;891;-64
2021/09/11 04:22:40;;;;;;;;;;;;;;;20.98;68.21;101118.50;5018092;28;1377;-64
2021/09/11 04:25:05;;;;;;;;;;;;;;;20.95;67.54;101116.97;5035756;28;1018;-65
2021/09/11 04:27:30;;;;;;;;;;;;;;;20.98;68.03;101115.78;5035183;28;1166;-64
2021/09/11 04:29:57;;;;;;;;;;;;;;;20.99;67.86;101121.03;5035417;28;922;-63
2021/09/11 04:32:22;;;;;;;;;;;;;;;21.01;67.60;101121.72;5035446;28;1163;-63
2021/09/11 04:34:47;;;;;;;;;;;;;;;21.02;67.20;101122.59;5048479;28;1956;-64
2021/09/11 04:37:12;;;;;;;;;;;;;;;20.93;67.61;101128.97;5055352;28;834;-63
2021/09/11 04:39:37;;;;;;;;;;;;;;;20.96;68.08;101129.50;5055852;28;1060;-66
2021/09/11 04:42:02;;;;;;;;;;;;;;;20.98;67.64;101129.31;5055661;28;1637;-61
2021/09/11 04:44:28;;;;;;;;;;;;;;;20.95;67.53;101122.41;5055426;28;934;-61
2021/09/11 04:46:53;;;;;;;;;;;;;;;20.89;67.44;101125.72;5043946;28;1651;-61
2021/09/11 04:49:18;;;;;;;;;;;;;;;20.76;68.04;101130.72;5041619;28;1704;-62
2021/09/11 04:51:43;;;;;;;;;;;;;;;20.85;67.87;101137.88;5045076;28;1471;-62
2021/09/11 04:54:08;;;;;;;;;;;;;;;20.84;67.67;101141.59;5043047;28;1359;-63
2021/09/11 04:56:33;;;;;;;;;;;;;;;20.87;68.13;101133.16;5044617;28;1964;-63
2021/09/11 04:58:58;;;;;;;;;;;;;;;20.86;68.24;101139.59;5044216;28;1435;-62
2021/09/11 05:01:23;;;;;;;;;;;;;;;20.91;68.01;101139.97;5042808;28;1409;-62
2021/09/11 05:03:48;;;;;;;;;;;;;;;20.89;68.08;101147.41;5047667;28;1437;-63
2021/09/11 05:06:13;;;;;;;;;;;;;;;20.91;67.53;101139.13;5043677;28;1372;-62
2021/09/11 05:08:39;;;;;;;;;;;;;;;20.95;67.99;101135.09;5034849;28;961;-63
2021/09/11 05:11:04;;;;;;;;;;;;;;;20.94;68.67;101133.41;5034932;28;1312;-63
2021/09/11 05:13:29;;;;;;;;;;;;;;;21.01;68.77;101143.41;5035158;28;1061;-65
2021/09/11 05:15:54;;;;;;;;;;;;;;;21.03;68.55;101151.38;5034734;28;1893;-63
2021/09/11 05:18:19;;;;;;;;;;;;;;;21.02;68.55;101146.97;5047730;28;1987;-65
2021/09/11 05:20:44;;;;;;;;;;;;;;;21.05;68.36;101150.22;5027565;28;1758;-63
2021/09/11 05:23:09;;;;;;;;;;;;;;;20.93;68.58;101156.94;5043400;28;1599;-64
2021/09/11 05:25:34;;;;;;;;;;;;;;;21.02;67.97;101152.41;5042526;28;1427;-64
2021/09/11 05:27:59;;;;;;;;;;;;;;;21.08;68.68;101149.91;5053899;28;1623;-61
2021/09/11 05:30:24;;;;;;;;;;;;;;;21.01;68.73;101148.84;5052506;28;1590;-63
2021/09/11 05:32:49;;;;;;;;;;;;;;;21.03;69.00;101144.09;5049101;28;1394;-63
2021/09/11 05:35:14;;;;;;;;;;;;;;;21.06;68.91;101154.63;5045577;28;1913;-63
2021/09/11 05:37:39;;;;;;;;;;;;;;;21.07;68.42;101156.34;5046478;28;1358;-63
2021/09/11 05:40:04;;;;;;;;;;;;;;;20.97;70.00;101155.56;5048073;28;1370;-62
2021/09/11 05:42:30;;;;;;;;;;;;;;;21.04;70.40;101162.06;5045979;28;1415;-64
2021/09/11 05:44:55;;;;;;;;;;;;;;;20.99;71.62;101169.81;5048675;28;1520;-65
2021/09/11 05:47:20;;;;;;;;;;;;;;;21.00;71.26;101168.81;5048786;28;1204;-65
2021/09/11 05:49:46;;;;;;;;;;;;;;;21.05;70.41;101155.63;5044656;28;1325;-63
2021/09/11 05:52:11;;;;;;;;;;;;;;;21.06;70.32;101156.50;5048585;28;1379;-63
2021/09/11 05:54:36;;;;;;;;;;;;;;;21.07;70.45;101159.03;5046974;28;1953;-63
2021/09/11 05:57:01;;;;;;;;;;;;;;;20.96;69.73;101163.88;5046574;28;1557;-64
2021/09/11 05:59:26;;;;;;;;;;;;;;;21.02;69.59;101165.94;5045870;28;1339;-64
2021/09/11 06:01:51;;;;;;;;;;;;;;;21.03;69.62;101159.50;5044923;28;1378;-64
2021/09/11 06:04:16;;;;;;;;;;;;;;;21.01;69.23;101173.22;5049167;28;1399;-64
2021/09/11 06:06:41;;;;;;;;;;;;;;;20.95;69.04;101171.16;5049587;28;1446;-63
2021/09/11 06:09:06;;;;;;;;;;;;;;;20.95;69.14;101170.31;5056014;28;1668;-62
2021/09/11 06:11:31;;;;;;;;;;;;;;;20.90;68.69;101180.78;5048585;28;2004;-64
2021/09/11 06:13:56;;;;;;;;;;;;;;;21.00;69.71;101182.34;5046713;28;1828;-64
2021/09/11 06:16:21;;;;;;;;;;;;;;;20.85;69.63;101189.38;5049662;28;1894;-64
2021/09/11 06:18:46;;;;;;;;;;;;;;;20.77;69.41;101194.75;5041985;28;1434;-64
2021/09/11 06:21:12;;;;;;;;;;;;;;;20.89;69.31;101195.31;5037938;28;1623;-64
2021/09/11 06:23:37;;;;;;;;;;;;;;;20.96;69.53;101188.28;5037784;28;962;-64
2021/09/11 06:26:02;;;;;;;;;;;;;;;20.96;69.24;101199.13;5037612;28;1372;-64
2021/09/11 06:28:27;;;;;;;;;;;;;;;20.97;69.08;101193.50;5046874;28;1947;-64
2021/09/11 06:30:52;;;;;;;;;;;;;;;20.88;69.14;101201.75;5057021;28;2238;-64
2021/09/11 06:33:17;;;;;;;;;;;;;;;20.92;69.55;101198.56;5057806;28;950;-64
2021/09/11 06:35:42;;;;;;;;;;;;;;;20.87;69.16;101211.72;5057296;28;1906;-64
2021/09/11 06:38:07;;;;;;;;;;;;;;;20.79;69.42;101203.53;5056872;28;969;-63
2021/09/11 06:40:32;;;;;;;;;;;;;;;20.76;70.45;101202.00;5057112;28;811;-63
2021/09/11 06:42:57;;;;;;;;;;;;;;;20.85;70.02;101205.63;5056918;28;1021;-63
2021/09/11 06:45:22;;;;;;;;;;;;;;;20.81;69.69;101212.34;5045814;28;1975;-64
2021/09/11 06:47:48;;;;;;;;;;;;;;;20.84;69.67;101211.19;5037412;28;1700;-64
2021/09/11 06:50:13;;;;;;;;;;;;;;;20.87;69.40;101206.31;5036774;28;808;-64
2021/09/11 06:52:38;;;;;;;;;;;;;;;20.89;69.32;101211.59;5036951;28;878;-64
2021/09/11 06:55:03;;;;;;;;;;;;;;;20.89;69.79;101207.00;5036628;28;1894;-64
2021/09/11 06:57:28;;;;;;;;;;;;;;;20.83;69.42;101214.91;5036510;28;831;-64
2021/09/11 06:59:53;;;;;;;;;;;;;;;20.77;69.44;101213.69;5036603;28;1010;-64
2021/09/11 07:02:18;;;;;;;;;;;;;;;20.80;69.55;101213.34;5037122;28;1747;-64
2021/09/11 07:04:43;;;;;;;;;;;;;;;20.81;69.26;101223.19;5036773;28;1041;-64
2021/09/11 07:07:08;;;;;;;;;;;;;;;20.85;69.45;101230.00;5036902;28;1057;-64
2021/09/11 07:09:34;;;;;;;;;;;;;;;20.76;69.90;101225.53;5036538;28;788;-64
2021/09/11 07:11:59;;;;;;;;;;;;;;;20.79;69.32;101227.91;5036198;28;847;-65
2021/09/11 07:14:24;;;;;;;;;;;;;;;20.82;70.12;101226.75;5036777;28;867;-64
2021/09/11 07:16:49;;;;;;;;;;;;;;;20.85;69.38;101230.00;5036157;28;1898;-64
2021/09/11 07:19:14;;;;;;;;;;;;;;;20.75;69.44;101230.09;5048422;28;1890;-64
2021/09/11 07:21:39;;;;;;;;;;;;;;;20.86;69.68;101228.13;5054682;28;1866;-64
2021/09/11 07:24:04;;;;;;;;;;;;;;;20.87;69.48;101233.41;5056062;28;878;-64
2021/09/11 07:26:29;;;;;;;;;;;;;;;20.82;69.15;101230.31;5056108;28;878;-63
2021/09/11 07:28:55;;;;;;;;;;;;;;;20.82;69.48;101229.47;5055564;28;1126;-64
2021/09/11 07:31:20;;;;;;;;;;;;;;;20.79;70.27;101233.31;5056332;28;874;-63
2021/09/11 07:33:45;;;;;;;;;;;;;;;20.80;69.47;101229.59;5055764;28;1265;-63
2021/09/11 07:36:11;;;;;;;;;;;;;;;20.73;69.58;101236.69;5055221;28;1909;-64
2021/09/11 07:38:36;;;;;;;;;;;;;;;20.75;70.08;101250.91;5055521;28;827;-63
2021/09/11 07:41:01;;;;;;;;;;;;;;;20.68;69.94;101249.81;5055960;28;1159;-63
2021/09/11 07:43:26;;;;;;;;;;;;;;;20.61;70.39;101243.31;5055515;28;990;-63
2021/09/11 07:45:51;;;;;;;;;;;;;;;20.63;69.91;101247.56;5055817;28;1021;-64
2021/09/11 07:48:16;;;;;;;;;;;;;;;20.63;70.19;101247.56;5052435;28;1228;-64
2021/09/11 07:50:41;;;;;;;;;;;;;;;20.67;69.73;101251.69;5044468;28;1322;-64
2021/09/11 07:53:06;;;;;;;;;;;;;;;20.74;69.55;101252.78;5043882;28;1667;-64
2021/09/11 07:55:31;;;;;;;;;;;;;;;20.75;69.51;101251.78;5036076;28;1890;-63
2021/09/11 07:57:56;;;;;;;;;;;;;;;20.78;70.04;101253.31;5035302;28;862;-63
2021/09/11 08:00:21;;;;;;;;;;;;;;;20.74;69.59;101254.63;5035346;28;834;-63
2021/09/11 08:02:46;;;;;;;;;;;;;;;20.73;69.80;101247.50;5036180;28;831;-63
2021/09/11 08:05:12;;;;;;;;;;;;;;;20.79;69.39;101246.88;5043780;28;1525;-64
2021/09/11 08:07:37;;;;;;;;;;;;;;;20.87;69.79;101252.38;5055623;28;862;-63
2021/09/11 08:10:02;;;;;;;;;;;;;;;20.84;69.62;101251.81;5042089;28;1974;-63
2021/09/11 08:12:27;;;;;;;;;;;;;;;20.96;69.67;101256.84;5039574;28;1513;-64
2021/09/11 08:14:52;;;;;;;;;;;;;;;21.03;68.87;101255.22;5036940;28;1960;-63
2021/09/11 08:17:17;;;;;;;;;;;;;;;21.08;69.45;101252.88;5053743;28;1490;-63
2021/09/11 08:19:42;;;;;;;;;;;;;;;21.06;69.04;101254.06;5053041;28;1565;-64
2021/09/11 08:22:08;;;;;;;;;;;;;;;21.07;69.23;101248.47;5036250;28;1709;-64
2021/09/11 08:24:33;;;;;;;;;;;;;;;21.08;68.80;101261.03;5040649;28;1729;-64
2021/09/11 08:26:58;;;;;;;;;;;;;;;21.08;69.65;101268.31;5046311;28;1542;-64
2021/09/11 08:29:23;;;;;;;;;;;;;;;21.09;69.23;101268.16;5043188;28;1652;-64
2021/09/11 08:31:48;;;;;;;;;;;;;;;21.12;69.41;101269.69;5046612;28;1735;-64
2021/09/11 08:34:13;;;;;;;;;;;;;;;21.13;70.39;101272.25;5055435;28;1000;-64
2021/09/11 08:36:38;;;;;;;;;;;;;;;21.15;70.05;101274.78;5051932;28;1965;-65
2021/09/11 08:39:04;;;;;;;;;;;;;;;21.17;69.78;101271.91;5050067;28;1623;-64
2021/09/11 08:41:29;;;;;;;;;;;;;;;21.18;69.33;101269.03;5049228;28;1530;-64
2021/09/11 08:43:55;;;;;;;;;;;;;;;21.19;69.74;101275.31;5043504;28;1513;-64
2021/09/11 08:46:20;;;;;;;;;;;;;;;21.21;70.03;101284.19;5045702;28;1606;-64
2021/09/11 08:48:46;;;;;;;;;;;;;;;21.18;68.53;101285.31;5035184;28;946;-64
2021/09/11 08:51:11;;;;;;;;;;;;;;;21.21;69.58;101278.75;5035006;28;1573;-64
2021/09/11 08:53:36;;;;;;;;;;;;;;;21.23;69.17;101293.00;5051695;28;1707;-64
2021/09/11 08:56:01;;;;;;;;;;;;;;;21.22;69.39;101291.31;5054147;28;1969;-64
2021/09/11 08:58:26;;;;;;;;;;;;;;;21.21;69.73;101282.31;5054629;28;938;-63
2021/09/11 09:00:51;;;;;;;;;;;;;;;21.23;69.17;101293.84;5054548;28;827;-64
2021/09/11 09:03:16;;;;;;;;;;;;;;;21.23;69.42;101298.44;5042211;28;867;-64
2021/09/11 09:05:41;;;;;;;;;;;;;;;21.24;69.33;101294.72;5061111;28;1199;-64
2021/09/11 09:08:06;;;;;;;;;;;;;;;21.25;69.34;101285.56;5043203;28;1008;-64
2021/09/11 09:10:32;;;;;;;;;;;;;;;21.24;69.33;101292.00;5042838;28;1779;-64
2021/09/11 09:12:57;;;;;;;;;;;;;;;21.27;69.11;101295.25;5041089;28;922;-64
2021/09/11 09:15:24;;;;;;;;;;;;;;;21.29;67.81;101297.81;5040908;28;1965;-64
2021/09/11 09:17:49;;;;;;;;;;;;;;;21.28;68.78;101299.66;5023319;28;860;-63
2021/09/11 09:20:14;;;;;;;;;;;;;;;21.26;68.95;101298.13;5040956;28;1188;-63
2021/09/11 09:22:39;;;;;;;;;;;;;;;21.27;68.13;101294.41;5041082;28;800;-63
2021/09/11 09:25:04;;;;;;;;;;;;;;;21.30;68.17;101294.94;5041142;28;1811;-64
2021/09/11 09:27:29;;;;;;;;;;;;;;;21.33;69.11;101302.72;5059671;28;1701;-64
2021/09/11 09:29:55;;;;;;;;;;;;;;;21.36;68.75;101304.28;5060610;28;1774;-64
2021/09/11 09:32:20;;;;;;;;;;;;;;;21.34;68.80;101296.28;5061178;28;1006;-63
2021/09/11 09:34:45;;;;;;;;;;;;;;;21.35;69.13;101299.88;5061007;28;1905;-64
2021/09/11 09:37:10;;;;;;;;;;;;;;;21.33;68.72;101302.72;5060837;28;998;-64
2021/09/11 09:39:35;;;;;;;;;;;;;;;21.31;68.79;101301.22;5060839;28;815;-64
2021/09/11 09:42:01;;;;;;;;;;;;;;;21.33;68.64;101299.16;5059566;28;1700;-64
2021/09/11 09:44:26;;;;;;;;;;;;;;;21.31;68.62;101298.50;5040621;28;1021;-64
2021/09/11 09:46:51;;;;;;;;;;;;;;;21.31;68.77;101296.66;5040539;28;886;-64
2021/09/11 09:49:16;;;;;;;;;;;;;;;21.28;68.61;101302.38;5040746;28;799;-64
2021/09/11 09:51:41;;;;;;;;;;;;;;;21.28;68.84;101299.66;5040788;28;910;-64
2021/09/11 09:54:06;;;;;;;;;;;;;;;21.30;69.17;101307.66;5040922;28;862;-64
2021/09/11 09:56:32;;;;;;;;;;;;;;;21.27;68.24;101303.38;5040667;28;1897;-64
2021/09/11 09:58:57;;;;;;;;;;;;;;;21.29;68.68;101305.94;5040569;28;827;-63
2021/09/11 10:01:22;;;;;;;;;;;;;;;21.28;68.58;101306.94;5059662;28;1945;-64
2021/09/11 10:03:47;;;;;;;;;;;;;;;21.30;68.77;101304.94;5060825;28;1159;-63
2021/09/11 10:06:12;;;;;;;;;;;;;;;21.31;68.42;101307.50;5060768;28;1021;-63
2021/09/11 10:08:37;;;;;;;;;;;;;;;21.30;69.10;101305.78;5060814;28;1006;-63
2021/09/11 10:11:03;;;;;;;;;;;;;;;21.29;68.54;101308.66;5060492;28;850;-63
2021/09/11 10:13:28;;;;;;;;;;;;;;;21.30;68.75;101308.50;5058428;28;1053;-63
2021/09/11 10:15:53;;;;;;;;;;;;;;;21.31;69.08;101302.06;5057178;28;1898;-63
2021/09/11 10:18:18;;;;;;;;;;;;;;;21.30;69.18;101308.50;5039191;28;1932;-63
2021/09/11 10:20:43;;;;;;;;;;;;;;;21.34;69.21;101300.88;5037571;28;1002;-63
2021/09/11 10:23:09;;;;;;;;;;;;;;;21.35;69.00;101298.00;5037353;28;985;-63
2021/09/11 10:25:34;;;;;;;;;;;;;;;21.36;69.22;101299.72;5037519;28;787;-63
2021/09/11 10:27:59;;;;;;;;;;;;;;;21.37;69.29;101305.97;5037122;28;1134;-63
2021/09/11 10:30:24;;;;;;;;;;;;;;;21.36;68.58;101304.28;5037024;28;934;-63
2021/09/11 10:32:49;;;;;;;;;;;;;;;21.35;68.17;101298.00;5037377;28;1009;-63
2021/09/11 10:35:14;;;;;;;;;;;;;;;21.37;69.02;101298.69;5055306;28;1967;-63
2021/09/11 10:37:39;;;;;;;;;;;;;;;21.35;69.07;101299.88;5056945;28;1937;-63
2021/09/11 10:40:04;;;;;;;;;;;;;;;21.33;69.33;101299.16;5056924;28;815;-64
2021/09/11 10:42:29;;;;;;;;;;;;;;;21.34;69.23;101301.72;5056969;28;966;-63
2021/09/11 10:44:54;;;;;;;;;;;;;;;21.35;69.26;101291.72;5056901;28;792;-63
2021/09/11 10:47:19;;;;;;;;;;;;;;;21.36;69.45;101293.44;5056765;28;1006;-63
2021/09/11 10:49:45;;;;;;;;;;;;;;;21.39;69.27;101296.69;5056901;28;922;-63
2021/09/11 10:52:10;;;;;;;;;;;;;;;21.42;69.62;101300.94;5037809;28;1809;-64
2021/09/11 10:54:35;;;;;;;;;;;;;;;21.42;69.15;101292.81;5036811;28;946;-64
2021/09/11 10:57:01;;;;;;;;;;;;;;;21.39;69.63;101293.13;5036557;28;1894;-64
2021/09/11 10:59:26;;;;;;;;;;;;;;;21.42;69.35;101292.81;5036638;28;918;-65
2021/09/11 11:01:51;;;;;;;;;;;;;;;21.44;68.92;101288.09;5036517;28;804;-64
2021/09/11 11:04:16;;;;;;;;;;;;;;;21.42;69.46;101290.09;5037193;28;1064;-64
2021/09/11 11:06:41;;;;;;;;;;;;;;;21.43;69.44;101289.94;5036452;28;847;-64
2021/09/11 11:09:06;;;;;;;;;;;;;;;21.43;69.44;101286.38;5054919;28;1682;-64
2021/09/11 11:11:31;;;;;;;;;;;;;;;21.42;69.59;101290.94;5056354;28;913;-64
2021/09/11 11:13:56;;;;;;;;;;;;;;;21.46;69.15;101288.78;5056432;28;855;-64
2021/09/11 11:16:21;;;;;;;;;;;;;;;21.46;69.31;101294.19;5056274;28;1894;-64
2021/09/11 11:18:46;;;;;;;;;;;;;;;21.46;68.91;101291.50;5056596;28;922;-64
2021/09/11 11:21:11;;;;;;;;;;;;;;;21.46;69.02;101286.06;5056122;28;815;-64
2021/09/11 11:23:36;;;;;;;;;;;;;;;21.49;68.99;101299.31;5055837;28;1741;-64
2021/09/11 11:26:01;;;;;;;;;;;;;;;21.50;69.07;101290.13;5035919;28;1025;-64
2021/09/11 11:28:27;;;;;;;;;;;;;;;21.51;69.17;101283.69;5036153;28;1890;-64
2021/09/11 11:30:52;;;;;;;;;;;;;;;21.54;69.17;101282.53;5035851;28;816;-64
2021/09/11 11:33:17;;;;;;;;;;;;;;;21.54;69.00;101285.25;5036452;28;1053;-64
2021/09/11 11:35:42;;;;;;;;;;;;;;;21.55;68.79;101282.38;5035917;28;1966;-64
2021/09/11 11:38:07;;;;;;;;;;;;;;;21.54;69.11;101282.53;5036069;28;784;-64
2021/09/11 11:40:32;;;;;;;;;;;;;;;21.55;68.72;101282.38;5037633;28;1859;-64
2021/09/11 11:42:57;;;;;;;;;;;;;;;21.56;69.29;101277.81;5055577;28;1821;-64
2021/09/11 11:45:22;;;;;;;;;;;;;;;21.55;69.05;101282.38;5055418;28;1769;-64
2021/09/11 11:47:47;;;;;;;;;;;;;;;21.55;68.97;101285.09;5055554;28;858;-64
2021/09/11 11:50:12;;;;;;;;;;;;;;;21.54;69.08;101280.69;5055700;28;1240;-64
2021/09/11 11:52:38;;;;;;;;;;;;;;;21.54;68.82;101282.53;5055659;28;1041;-64
2021/09/11 11:55:03;;;;;;;;;;;;;;;21.54;68.75;101272.53;5055723;28;1977;-64
2021/09/11 11:57:28;;;;;;;;;;;;;;;21.54;68.96;101277.97;5054516;28;1822;-64
2021/09/11 11:59:53;;;;;;;;;;;;;;;21.55;68.92;101287.81;5035391;28;677;-64
2021/09/11 12:02:18;;;;;;;;;;;;;;;21.55;68.68;101282.38;5035709;28;1053;-64
2021/09/11 12:04:43;;;;;;;;;;;;;;;21.53;68.74;101278.97;5035840;28;942;-64
2021/09/11 12:07:08;;;;;;;;;;;;;;;21.54;68.79;101280.69;5035263;28;843;-64
2021/09/11 12:09:33;;;;;;;;;;;;;;;21.54;68.61;101279.81;5035384;28;982;-64
2021/09/11 12:11:58;;;;;;;;;;;;;;;21.55;68.34;101276.97;5035261;28;1006;-64
2021/09/11 12:14:23;;;;;;;;;;;;;;;21.54;68.95;101280.69;5035324;28;1851;-64
2021/09/11 12:16:48;;;;;;;;;;;;;;;21.56;68.60;101275.94;5054931;28;1957;-64
2021/09/11 12:19:13;;;;;;;;;;;;;;;21.56;68.52;101267.81;5055290;28;1009;-64
2021/09/11 12:21:39;;;;;;;;;;;;;;;21.60;68.44;101271.06;5055177;28;878;-64
2021/09/11 12:24:04;;;;;;;;;;;;;;;21.63;68.52;101276.16;5055008;28;815;-64
2021/09/11 12:26:29;;;;;;;;;;;;;;;21.63;68.66;101268.88;5055075;28;839;-64
2021/09/11 12:28:54;;;;;;;;;;;;;;;21.63;68.59;101270.75;5055009;28;1165;-64
2021/09/11 12:31:19;;;;;;;;;;;;;;;21.63;68.74;101271.59;5053428;28;906;-64
2021/09/11 12:33:46;;;;;;;;;;;;;;;21.59;68.69;101266.63;5037579;28;1897;-64
2021/09/11 12:36:11;;;;;;;;;;;;;;;21.59;68.77;101270.22;5034536;28;1902;-64
2021/09/11 12:38:36;;;;;;;;;;;;;;;21.56;68.92;101284.09;5034628;28;1018;-63